createdAt,value
2018-09-28T00:00:13.956Z,94.65
2018-09-28T00:01:13.925Z,94.84
2018-09-28T00:02:13.901Z,94.74
2018-09-28T00:03:13.872Z,94.74
2018-09-28T00:04:13.844Z,94.55
2018-09-28T00:05:13.818Z,94.93
2018-09-28T00:06:13.793Z,94.84
2018-09-28T00:07:13.781Z,95.32
2018-09-28T00:08:13.739Z,95.12
2018-09-28T00:09:13.713Z,95.70
2018-09-28T00:10:13.694Z,94.93
2018-09-28T00:11:13.663Z,94.84
2018-09-28T00:12:13.635Z,94.74
2018-09-28T00:13:13.607Z,94.65
2018-09-28T00:14:13.585Z,94.65
2018-09-28T00:15:13.564Z,94.93
2018-09-28T00:16:13.528Z,95.12
2018-09-28T00:17:13.508Z,94.55
2018-09-28T00:18:13.481Z,94.93
2018-09-28T00:19:13.451Z,95.03
2018-09-28T00:20:13.425Z,94.65
2018-09-28T00:21:13.403Z,95.12
2018-09-28T00:22:13.378Z,94.65
2018-09-28T00:23:13.342Z,95.22
2018-09-28T00:24:13.325Z,94.55
2018-09-28T00:25:13.301Z,94.93
2018-09-28T00:26:13.270Z,94.65
2018-09-28T00:27:13.245Z,95.32
2018-09-28T00:28:13.218Z,95.12
2018-09-28T00:29:13.194Z,94.84
2018-09-28T00:30:13.161Z,95.51
2018-09-28T00:31:13.139Z,95.51
2018-09-28T00:32:13.109Z,95.12
2018-09-28T00:33:13.086Z,95.32
2018-09-28T00:34:13.064Z,95.03
2018-09-28T00:35:13.031Z,94.74
2018-09-28T00:36:13.020Z,94.84
2018-09-28T00:37:12.986Z,94.84
2018-09-28T00:38:12.948Z,95.22
2018-09-28T00:39:12.933Z,94.93
2018-09-28T00:40:12.906Z,94.79
2018-09-28T00:41:12.877Z,94.84
2018-09-28T00:42:12.848Z,94.79
2018-09-28T00:43:12.826Z,94.84
2018-09-28T00:44:12.801Z,94.55
2018-09-28T00:45:12.768Z,94.46
2018-09-28T00:46:12.747Z,94.89
2018-09-28T00:47:12.723Z,94.93
2018-09-28T00:48:12.688Z,94.93
2018-09-28T00:49:12.670Z,94.84
2018-09-28T00:50:12.634Z,94.84
2018-09-28T00:51:12.613Z,94.93
2018-09-28T00:52:12.594Z,94.46
2018-09-28T00:53:12.558Z,94.74
2018-09-28T00:54:12.538Z,94.74
2018-09-28T00:55:12.508Z,94.89
2018-09-28T00:56:12.485Z,94.89
2018-09-28T00:57:12.453Z,95.08
2018-09-28T00:58:12.429Z,94.60
2018-09-28T00:59:12.409Z,94.79
2018-09-28T01:00:12.374Z,94.41
2018-09-28T01:01:12.344Z,94.03
2018-09-28T01:02:12.327Z,94.31
2018-09-28T01:03:12.299Z,94.89
2018-09-28T01:04:12.268Z,94.51
2018-09-28T01:05:12.241Z,94.22
2018-09-28T01:06:12.225Z,94.51
2018-09-28T01:07:12.195Z,94.03
2018-09-28T01:08:12.163Z,94.22
2018-09-28T01:09:12.136Z,93.93
2018-09-28T01:10:12.168Z,94.22
2018-09-28T01:11:12.092Z,93.65
2018-09-28T01:12:12.055Z,93.74
2018-09-28T01:13:12.035Z,93.36
2018-09-28T01:14:12.009Z,92.50
2018-09-28T01:15:11.980Z,93.65
2018-09-28T01:16:11.957Z,93.26
2018-09-28T01:17:11.931Z,92.97
2018-09-28T01:18:11.897Z,92.50
2018-09-28T01:19:11.873Z,92.74
2018-09-28T01:20:11.849Z,93.12
2018-09-28T01:21:11.828Z,92.69
2018-09-28T01:22:11.795Z,92.74
2018-09-28T01:23:11.767Z,91.88
2018-09-28T01:24:11.747Z,91.50
2018-09-28T01:25:11.717Z,90.26
2018-09-28T01:26:11.688Z,88.73
2018-09-28T01:27:11.659Z,89.21
2018-09-28T01:28:11.643Z,88.54
2018-09-28T01:29:11.618Z,88.40
2018-09-28T01:30:11.715Z,86.59
2018-09-28T01:31:11.563Z,87.26
2018-09-28T01:32:11.529Z,88.21
2018-09-28T01:33:11.505Z,88.12
2018-09-28T01:34:11.476Z,88.31
2018-09-28T01:35:11.447Z,88.12
2018-09-28T01:36:11.429Z,88.26
2018-09-28T01:37:11.395Z,88.69
2018-09-28T01:38:11.374Z,88.31
2018-09-28T01:39:11.347Z,88.54
2018-09-28T01:40:11.332Z,89.21
2018-09-28T01:41:11.300Z,89.54
2018-09-28T01:42:11.261Z,88.45
2018-09-28T01:43:11.246Z,89.59
2018-09-28T01:44:11.218Z,89.40
2018-09-28T01:45:11.268Z,88.21
2018-09-28T01:46:11.163Z,88.59
2018-09-28T01:47:11.134Z,87.83
2018-09-28T01:48:11.116Z,87.35
2018-09-28T01:49:11.088Z,87.97
2018-09-28T01:50:11.057Z,87.87
2018-09-28T01:51:11.030Z,88.45
2018-09-28T01:52:11.010Z,88.45
2018-09-28T01:53:10.975Z,87.97
2018-09-28T01:54:10.957Z,87.93
2018-09-28T01:55:10.928Z,88.73
2018-09-28T01:56:10.897Z,88.40
2018-09-28T01:57:10.876Z,88.59
2018-09-28T01:58:10.844Z,88.59
2018-09-28T01:59:10.827Z,87.83
2018-09-28T02:00:10.795Z,87.35
2018-09-28T02:01:10.761Z,88.31
2018-09-28T02:02:10.737Z,88.02
2018-09-28T02:03:10.715Z,88.02
2018-09-28T02:04:10.682Z,88.21
2018-09-28T02:05:10.666Z,88.02
2018-09-28T02:06:10.635Z,87.45
2018-09-28T02:07:10.607Z,87.83
2018-09-28T02:08:10.580Z,87.83
2018-09-28T02:09:10.568Z,88.12
2018-09-28T02:10:10.523Z,88.12
2018-09-28T02:11:10.504Z,87.83
2018-09-28T02:12:10.475Z,87.97
2018-09-28T02:13:10.447Z,88.12
2018-09-28T02:14:10.425Z,88.02
2018-09-28T02:15:10.400Z,87.97
2018-09-28T02:16:10.370Z,87.87
2018-09-28T02:17:10.346Z,88.88
2018-09-28T02:18:10.318Z,89.54
2018-09-28T02:19:10.287Z,89.36
2018-09-28T02:20:10.263Z,90.41
2018-09-28T02:21:10.232Z,89.07
2018-09-28T02:22:10.219Z,87.74
2018-09-28T02:23:10.189Z,87.93
2018-09-28T02:24:10.162Z,87.26
2018-09-28T02:25:10.132Z,87.45
2018-09-28T02:26:10.113Z,86.30
2018-09-28T02:27:10.080Z,87.54
2018-09-28T02:28:10.052Z,86.98
2018-09-28T02:29:10.031Z,87.07
2018-09-28T02:30:09.996Z,87.16
2018-09-28T02:31:09.970Z,87.45
2018-09-28T02:32:09.959Z,87.35
2018-09-28T02:33:09.924Z,87.54
2018-09-28T02:34:09.896Z,86.69
2018-09-28T02:35:09.864Z,87.16
2018-09-28T02:36:09.848Z,87.16
2018-09-28T02:37:09.819Z,87.45
2018-09-28T02:38:09.788Z,87.83
2018-09-28T02:39:09.765Z,87.07
2018-09-28T02:40:09.734Z,87.93
2018-09-28T02:41:09.706Z,88.59
2018-09-28T02:42:09.683Z,87.93
2018-09-28T02:43:09.661Z,88.59
2018-09-28T02:44:09.624Z,87.64
2018-09-28T02:45:09.603Z,85.54
2018-09-28T02:46:09.573Z,84.49
2018-09-28T02:47:09.546Z,85.73
2018-09-28T02:48:09.527Z,86.11
2018-09-28T02:49:09.499Z,83.40
2018-09-28T02:50:09.476Z,83.59
2018-09-28T02:51:09.442Z,84.16
2018-09-28T02:52:09.418Z,84.36
2018-09-28T02:53:09.413Z,84.30
2018-09-28T02:54:09.371Z,84.69
2018-09-28T02:55:09.340Z,84.69
2018-09-28T02:56:09.314Z,84.97
2018-09-28T02:57:09.287Z,85.16
2018-09-28T02:58:09.256Z,85.45
2018-09-28T02:59:09.231Z,86.21
2018-09-28T03:00:09.208Z,85.83
2018-09-28T03:01:09.175Z,85.83
2018-09-28T03:02:09.152Z,86.49
2018-09-28T03:03:09.134Z,86.30
2018-09-28T03:04:09.101Z,86.49
2018-09-28T03:05:09.067Z,86.40
2018-09-28T03:06:09.101Z,87.07
2018-09-28T03:07:09.021Z,87.16
2018-09-28T03:08:08.991Z,86.59
2018-09-28T03:09:08.970Z,86.88
2018-09-28T03:10:08.940Z,87.07
2018-09-28T03:11:08.915Z,86.49
2018-09-28T03:12:08.880Z,87.35
2018-09-28T03:13:08.864Z,86.69
2018-09-28T03:14:08.830Z,86.59
2018-09-28T03:15:08.813Z,86.40
2018-09-28T03:16:08.773Z,87.07
2018-09-28T03:17:08.753Z,86.78
2018-09-28T03:18:08.729Z,86.98
2018-09-28T03:19:08.696Z,86.69
2018-09-28T03:20:08.679Z,87.26
2018-09-28T03:21:08.662Z,86.30
2018-09-28T03:22:08.626Z,86.30
2018-09-28T03:23:08.593Z,86.78
2018-09-28T03:24:08.573Z,87.16
2018-09-28T03:25:08.537Z,87.07
2018-09-28T03:26:08.520Z,86.69
2018-09-28T03:27:08.491Z,86.69
2018-09-28T03:28:08.468Z,86.59
2018-09-28T03:29:08.435Z,86.69
2018-09-28T03:30:08.408Z,86.69
2018-09-28T03:31:08.381Z,86.49
2018-09-28T03:32:08.360Z,86.69
2018-09-28T03:33:08.329Z,86.98
2018-09-28T03:34:08.308Z,86.88
2018-09-28T03:35:08.280Z,86.21
2018-09-28T03:36:08.243Z,86.59
2018-09-28T03:37:08.234Z,86.69
2018-09-28T03:38:08.196Z,86.98
2018-09-28T03:39:08.173Z,87.64
2018-09-28T03:40:08.143Z,86.88
2018-09-28T03:41:08.116Z,86.92
2018-09-28T03:42:08.096Z,87.30
2018-09-28T03:43:08.066Z,87.30
2018-09-28T03:44:08.043Z,87.30
2018-09-28T03:45:08.007Z,87.78
2018-09-28T03:46:07.988Z,87.59
2018-09-28T03:47:07.952Z,87.97
2018-09-28T03:48:07.935Z,88.16
2018-09-28T03:49:07.908Z,88.07
2018-09-28T03:50:07.877Z,88.16
2018-09-28T03:51:07.856Z,88.16
2018-09-28T03:52:07.819Z,88.35
2018-09-28T03:53:07.799Z,88.73
2018-09-28T03:54:07.782Z,88.64
2018-09-28T03:55:07.749Z,88.16
2018-09-28T03:56:07.716Z,88.07
2018-09-28T03:57:07.713Z,87.49
2018-09-28T03:58:07.663Z,88.16
2018-09-28T03:59:07.637Z,88.92
2018-09-28T04:00:07.612Z,88.92
2018-09-28T04:01:07.590Z,88.64
2018-09-28T04:02:07.555Z,88.92
2018-09-28T04:03:07.535Z,88.64
2018-09-28T04:04:07.512Z,89.02
2018-09-28T04:05:07.484Z,89.12
2018-09-28T04:06:07.456Z,89.92
2018-09-28T04:07:07.430Z,90.40
2018-09-28T04:08:07.402Z,90.40
2018-09-28T04:09:07.376Z,90.69
2018-09-28T04:10:07.345Z,90.50
2018-09-28T04:11:07.321Z,91.55
2018-09-28T04:12:07.296Z,91.45
2018-09-28T04:13:07.270Z,91.64
2018-09-28T04:14:07.240Z,91.93
2018-09-28T04:15:07.263Z,91.83
2018-09-28T04:16:07.193Z,92.02
2018-09-28T04:17:07.163Z,92.31
2018-09-28T04:18:07.131Z,92.50
2018-09-28T04:19:07.107Z,92.88
2018-09-28T04:20:07.086Z,92.88
2018-09-28T04:21:07.055Z,93.07
2018-09-28T04:22:07.108Z,92.97
2018-09-28T04:23:07.011Z,93.17
2018-09-28T04:24:06.974Z,93.07
2018-09-28T04:25:06.954Z,93.07
2018-09-28T04:26:06.929Z,93.26
2018-09-28T04:27:06.897Z,93.07
2018-09-28T04:28:06.884Z,92.79
2018-09-28T04:29:06.841Z,92.41
2018-09-28T04:30:06.825Z,92.41
2018-09-28T04:31:06.790Z,92.41
2018-09-28T04:32:06.815Z,92.12
2018-09-28T04:33:06.740Z,92.60
2018-09-28T04:34:06.710Z,92.12
2018-09-28T04:35:06.690Z,92.12
2018-09-28T04:36:06.667Z,92.41
2018-09-28T04:37:06.628Z,91.93
2018-09-28T04:38:06.614Z,92.41
2018-09-28T04:39:06.574Z,92.41
2018-09-28T04:40:06.561Z,92.41
2018-09-28T04:41:06.530Z,92.79
2018-09-28T04:42:06.497Z,92.12
2018-09-28T04:43:06.472Z,92.02
2018-09-28T04:44:06.448Z,91.74
2018-09-28T04:45:06.447Z,91.16
2018-09-28T04:46:06.399Z,90.69
2018-09-28T04:47:06.368Z,90.59
2018-09-28T04:48:06.340Z,90.88
2018-09-28T04:49:06.332Z,90.69
2018-09-28T04:50:06.286Z,90.11
2018-09-28T04:51:06.259Z,90.11
2018-09-28T04:52:06.243Z,90.97
2018-09-28T04:53:06.211Z,90.50
2018-09-28T04:54:06.187Z,90.21
2018-09-28T04:55:06.160Z,90.11
2018-09-28T04:56:06.127Z,89.73
2018-09-28T04:57:06.101Z,90.16
2018-09-28T04:58:06.079Z,89.68
2018-09-28T04:59:06.052Z,90.21
2018-09-28T05:00:06.021Z,89.30
2018-09-28T05:01:06.007Z,89.39
2018-09-28T05:02:05.967Z,89.49
2018-09-28T05:03:05.943Z,89.01
2018-09-28T05:04:05.918Z,89.06
2018-09-28T05:05:05.891Z,88.87
2018-09-28T05:06:05.874Z,89.45
2018-09-28T05:07:05.847Z,89.25
2018-09-28T05:08:05.810Z,88.97
2018-09-28T05:09:05.788Z,89.35
2018-09-28T05:10:05.759Z,88.78
2018-09-28T05:11:05.729Z,88.68
2018-09-28T05:12:05.711Z,89.16
2018-09-28T05:13:05.750Z,88.68
2018-09-28T05:14:05.650Z,88.97
2018-09-28T05:15:05.629Z,88.40
2018-09-28T05:16:05.604Z,89.01
2018-09-28T05:17:05.578Z,88.78
2018-09-28T05:18:05.544Z,89.16
2018-09-28T05:19:05.526Z,89.45
2018-09-28T05:20:05.507Z,89.20
2018-09-28T05:21:05.467Z,89.11
2018-09-28T05:22:05.446Z,89.20
2018-09-28T05:23:05.420Z,89.20
2018-09-28T05:24:05.391Z,89.01
2018-09-28T05:25:05.362Z,89.16
2018-09-28T05:26:05.340Z,89.01
2018-09-28T05:27:05.308Z,88.82
2018-09-28T05:28:05.397Z,89.11
2018-09-28T05:29:05.260Z,89.49
2018-09-28T05:30:05.238Z,89.59
2018-09-28T05:31:05.241Z,89.59
2018-09-28T05:32:05.250Z,87.25
2018-09-28T05:33:05.281Z,87.44
2018-09-28T05:34:05.129Z,86.01
2018-09-28T05:35:05.103Z,85.25
2018-09-28T05:36:05.071Z,85.72
2018-09-28T05:37:05.057Z,84.58
2018-09-28T05:38:05.017Z,85.53
2018-09-28T05:39:04.995Z,86.58
2018-09-28T05:40:04.972Z,86.53
2018-09-28T05:41:04.948Z,86.05
2018-09-28T05:42:04.913Z,85.67
2018-09-28T05:43:04.892Z,85.15
2018-09-28T05:44:04.864Z,85.19
2018-09-28T05:45:04.845Z,85.19
2018-09-28T05:46:04.807Z,85.38
2018-09-28T05:47:04.790Z,86.24
2018-09-28T05:48:04.758Z,85.58
2018-09-28T05:49:04.738Z,86.15
2018-09-28T05:50:04.712Z,86.24
2018-09-28T05:51:04.692Z,86.30
2018-09-28T05:52:04.648Z,86.53
2018-09-28T05:53:04.630Z,86.58
2018-09-28T05:54:04.610Z,85.67
2018-09-28T05:55:04.579Z,85.86
2018-09-28T05:56:04.544Z,85.63
2018-09-28T05:57:04.520Z,84.91
2018-09-28T05:58:04.497Z,85.38
2018-09-28T05:59:04.466Z,85.05
2018-09-28T06:00:04.483Z,83.72
2018-09-28T06:01:04.416Z,83.72
2018-09-28T06:02:04.391Z,83.43
2018-09-28T06:03:04.359Z,82.09
2018-09-28T06:04:04.338Z,82.95
2018-09-28T06:05:04.307Z,82.48
2018-09-28T06:06:04.288Z,82.48
2018-09-28T06:07:04.259Z,83.24
2018-09-28T06:08:04.230Z,82.32
2018-09-28T06:09:04.216Z,81.76
2018-09-28T06:10:04.171Z,81.71
2018-09-28T06:11:04.153Z,81.33
2018-09-28T06:12:04.124Z,81.85
2018-09-28T06:13:04.092Z,80.04
2018-09-28T06:14:04.077Z,81.09
2018-09-28T06:15:04.052Z,82.23
2018-09-28T06:16:04.016Z,82.14
2018-09-28T06:17:03.993Z,81.56
2018-09-28T06:18:04.055Z,81.66
2018-09-28T06:19:03.968Z,82.14
2018-09-28T06:20:03.927Z,82.23
2018-09-28T06:21:03.889Z,79.75
2018-09-28T06:22:03.864Z,78.79
2018-09-28T06:23:03.834Z,79.65
2018-09-28T06:24:03.864Z,78.70
2018-09-28T06:25:03.781Z,76.69
2018-09-28T06:26:03.829Z,76.37
2018-09-28T06:27:03.729Z,75.60
2018-09-28T06:28:03.700Z,72.74
2018-09-28T06:29:03.679Z,72.64
2018-09-28T06:30:03.697Z,72.74
2018-09-28T06:31:03.620Z,73.69
2018-09-28T06:32:03.595Z,71.41
2018-09-28T06:33:03.567Z,70.07
2018-09-28T06:34:03.545Z,69.97
2018-09-28T06:35:03.511Z,67.68
2018-09-28T06:36:03.526Z,67.11
2018-09-28T06:37:03.461Z,66.25
2018-09-28T06:38:03.439Z,66.82
2018-09-28T06:39:03.415Z,67.01
2018-09-28T06:40:03.384Z,65.48
2018-09-28T06:41:03.360Z,63.39
2018-09-28T06:42:03.623Z,63.57
2018-09-28T06:43:03.312Z,62.52
2018-09-28T06:44:03.280Z,62.05
2018-09-28T06:45:03.252Z,61.73
2018-09-28T06:46:03.231Z,61.47
2018-09-28T06:47:03.199Z,60.58
2018-09-28T06:48:03.179Z,60.14
2018-09-28T06:49:03.152Z,61.10
2018-09-28T06:50:03.115Z,60.04
2018-09-28T06:51:03.097Z,58.99
2018-09-28T06:52:03.067Z,58.04
2018-09-28T06:53:03.047Z,58.90
2018-09-28T06:54:03.020Z,56.89
2018-09-28T06:55:02.989Z,56.60
2018-09-28T06:56:02.962Z,55.65
2018-09-28T06:57:02.938Z,53.55
2018-09-28T06:58:02.919Z,52.22
2018-09-28T06:59:02.880Z,51.35
2018-09-28T07:00:02.893Z,54.22
2018-09-28T07:01:02.826Z,54.22
2018-09-28T07:02:02.804Z,52.03
2018-09-28T07:03:02.783Z,54.06
2018-09-28T07:04:02.776Z,57.09
2018-09-28T07:05:02.760Z,56.04
2018-09-28T07:06:02.745Z,53.93
2018-09-28T07:07:02.666Z,54.22
2018-09-28T07:08:02.648Z,51.93
2018-09-28T07:09:02.615Z,50.69
2018-09-28T07:10:02.592Z,51.45
2018-09-28T07:11:02.571Z,51.74
2018-09-28T07:12:02.546Z,52.12
2018-09-28T07:13:02.511Z,51.35
2018-09-28T07:14:02.486Z,52.31
2018-09-28T07:15:02.463Z,51.26
2018-09-28T07:16:02.426Z,53.00
2018-09-28T07:17:02.409Z,51.19
2018-09-28T07:18:02.431Z,50.33
2018-09-28T07:19:02.351Z,48.99
2018-09-28T07:20:02.340Z,48.90
2018-09-28T07:21:02.296Z,49.38
2018-09-28T07:22:02.269Z,48.42
2018-09-28T07:23:02.248Z,48.71
2018-09-28T07:24:02.304Z,48.13
2018-09-28T07:25:02.258Z,50.33
2018-09-28T07:26:02.167Z,51.67
2018-09-28T07:27:02.145Z,51.86
2018-09-28T07:28:02.119Z,50.71
2018-09-28T07:29:02.205Z,51.00
2018-09-28T07:30:02.064Z,50.14
2018-09-28T07:31:02.038Z,49.38
2018-09-28T07:32:02.007Z,49.38
2018-09-28T07:33:01.982Z,50.24
2018-09-28T07:34:01.961Z,50.43
2018-09-28T07:35:01.931Z,50.71
2018-09-28T07:36:02.142Z,51.95
2018-09-28T07:37:02.118Z,53.67
2018-09-28T07:38:01.858Z,52.91
2018-09-28T07:39:01.821Z,52.24
2018-09-28T07:40:01.802Z,51.95
2018-09-28T07:41:01.770Z,52.43
2018-09-28T07:42:01.891Z,52.05
2018-09-28T07:43:01.730Z,50.90
2018-09-28T07:44:01.695Z,52.15
2018-09-28T07:45:01.668Z,53.39
2018-09-28T07:46:01.641Z,51.31
2018-09-28T07:47:01.625Z,52.46
2018-09-28T07:48:01.596Z,52.62
2018-09-28T07:49:01.621Z,53.89
2018-09-28T07:50:01.534Z,53.61
2018-09-28T07:51:01.508Z,55.13
2018-09-28T07:52:01.491Z,55.32
2018-09-28T07:53:01.456Z,53.70
2018-09-28T07:54:01.432Z,50.84
2018-09-28T07:55:01.410Z,52.17
2018-09-28T07:56:01.376Z,52.26
2018-09-28T07:57:01.349Z,52.08
2018-09-28T07:58:01.332Z,52.08
2018-09-28T07:59:01.297Z,51.41
2018-09-28T08:00:01.273Z,51.31
2018-09-28T08:01:01.244Z,50.35
2018-09-28T08:02:01.220Z,50.64
2018-09-28T08:03:01.193Z,50.55
2018-09-28T08:04:01.262Z,50.64
2018-09-28T08:05:01.141Z,51.41
2018-09-28T08:06:01.118Z,51.41
2018-09-28T08:07:01.083Z,52.17
2018-09-28T08:08:01.065Z,51.12
2018-09-28T08:09:01.033Z,51.03
2018-09-28T08:10:01.009Z,51.50
2018-09-28T08:11:00.982Z,52.48
2018-09-28T08:12:00.956Z,51.43
2018-09-28T08:13:00.936Z,52.29
2018-09-28T08:14:00.903Z,52.10
2018-09-28T08:15:00.882Z,53.16
2018-09-28T08:16:00.853Z,53.92
2018-09-28T08:17:00.827Z,53.92
2018-09-28T08:18:00.842Z,55.07
2018-09-28T08:19:00.773Z,55.35
2018-09-28T08:20:00.749Z,56.21
2018-09-28T08:21:00.718Z,56.12
2018-09-28T08:22:00.688Z,56.31
2018-09-28T08:23:00.681Z,57.07
2018-09-28T08:24:00.635Z,58.12
2018-09-28T08:25:00.617Z,58.22
2018-09-28T08:26:00.597Z,58.32
2018-09-28T08:27:00.559Z,58.98
2018-09-28T08:28:00.539Z,58.70
2018-09-28T08:29:00.510Z,58.51
2018-09-28T08:30:00.485Z,58.80
2018-09-28T08:31:00.464Z,58.32
2018-09-28T08:32:00.428Z,58.22
2018-09-28T08:33:00.407Z,58.70
2018-09-28T08:34:00.372Z,58.70
2018-09-28T08:35:00.362Z,59.18
2018-09-28T08:36:00.325Z,60.04
2018-09-28T08:37:00.293Z,61.57
2018-09-28T08:38:00.276Z,62.14
2018-09-28T08:39:00.248Z,62.43
2018-09-28T08:40:00.217Z,63.19
2018-09-28T08:41:00.190Z,62.81
2018-09-28T08:42:00.225Z,63.67
2018-09-28T08:43:00.146Z,64.53
2018-09-28T08:44:00.113Z,65.39
2018-09-28T08:45:00.088Z,66.25
2018-09-28T08:46:00.061Z,66.73
2018-09-28T08:47:00.035Z,66.92
2018-09-28T08:48:00.024Z,65.58
2018-09-28T08:48:59.978Z,64.34
2018-09-28T08:49:59.964Z,65.58
2018-09-28T08:50:59.937Z,64.05
2018-09-28T08:51:59.905Z,63.89
2018-09-28T08:52:59.885Z,63.10
2018-09-28T08:53:59.851Z,62.90
2018-09-28T08:54:59.823Z,64.34
2018-09-28T08:55:59.801Z,66.54
2018-09-28T08:56:59.773Z,67.02
2018-09-28T08:57:59.746Z,68.93
2018-09-28T08:58:59.719Z,70.68
2018-09-28T08:59:59.698Z,71.55
2018-09-28T09:00:59.665Z,71.55
2018-09-28T09:01:59.695Z,71.26
2018-09-28T09:02:59.619Z,71.93
2018-09-28T09:03:59.586Z,72.22
2018-09-28T09:04:59.568Z,72.50
2018-09-28T09:05:59.538Z,74.13
2018-09-28T09:06:59.509Z,76.14
2018-09-28T09:07:59.478Z,76.52
2018-09-28T09:08:59.463Z,76.90
2018-09-28T09:09:59.436Z,77.38
2018-09-28T09:10:59.414Z,77.38
2018-09-28T09:11:59.386Z,77.28
2018-09-28T09:12:59.357Z,78.43
2018-09-28T09:13:59.325Z,79.58
2018-09-28T09:14:59.304Z,79.20
2018-09-28T09:15:59.271Z,80.16
2018-09-28T09:16:59.243Z,80.67
2018-09-28T09:17:59.301Z,82.54
2018-09-28T09:18:59.201Z,81.92
2018-09-28T09:19:59.173Z,81.78
2018-09-28T09:20:59.144Z,82.74
2018-09-28T09:21:59.125Z,82.87
2018-09-28T09:22:59.093Z,82.78
2018-09-28T09:23:59.137Z,82.40
2018-09-28T09:24:59.037Z,82.64
2018-09-28T09:25:59.010Z,82.30
2018-09-28T09:26:58.993Z,83.36
2018-09-28T09:27:58.957Z,83.16
2018-09-28T09:28:58.932Z,83.36
2018-09-28T09:29:58.951Z,84.27
2018-09-28T09:30:58.881Z,84.31
2018-09-28T09:31:58.862Z,84.17
2018-09-28T09:32:58.840Z,84.88
2018-09-28T09:33:58.804Z,86.04
2018-09-28T09:34:58.782Z,85.65
2018-09-28T09:35:58.747Z,85.46
2018-09-28T09:36:58.731Z,85.32
2018-09-28T09:37:58.692Z,85.71
2018-09-28T09:38:58.670Z,84.27
2018-09-28T09:39:58.648Z,84.69
2018-09-28T09:40:58.618Z,85.61
2018-09-28T09:41:58.600Z,84.94
2018-09-28T09:42:58.573Z,85.51
2018-09-28T09:43:58.543Z,85.03
2018-09-28T09:44:58.519Z,85.27
2018-09-28T09:45:58.486Z,84.75
2018-09-28T09:46:58.463Z,85.13
2018-09-28T09:47:58.441Z,84.94
2018-09-28T09:48:58.410Z,85.51
2018-09-28T09:49:58.389Z,85.17
2018-09-28T09:50:58.360Z,84.94
2018-09-28T09:51:58.330Z,84.69
2018-09-28T09:52:58.304Z,85.13
2018-09-28T09:53:58.286Z,85.22
2018-09-28T09:54:58.257Z,85.75
2018-09-28T09:55:58.228Z,85.51
2018-09-28T09:56:58.207Z,85.13
2018-09-28T09:57:58.193Z,85.13
2018-09-28T09:58:58.154Z,84.79
2018-09-28T09:59:58.123Z,84.79
2018-09-28T10:00:58.101Z,84.22
2018-09-28T10:01:58.076Z,83.69
2018-09-28T10:02:58.047Z,83.73
2018-09-28T10:03:58.019Z,82.93
2018-09-28T10:04:57.996Z,83.31
2018-09-28T10:05:57.973Z,82.68
2018-09-28T10:06:57.939Z,82.59
2018-09-28T10:07:57.953Z,82.35
2018-09-28T10:08:57.893Z,81.92
2018-09-28T10:09:57.860Z,81.15
2018-09-28T10:10:57.836Z,81.30
2018-09-28T10:11:57.810Z,80.77
2018-09-28T10:12:57.792Z,80.73
2018-09-28T10:13:57.764Z,80.29
2018-09-28T10:14:57.727Z,80.29
2018-09-28T10:15:57.709Z,79.20
2018-09-28T10:16:57.677Z,78.47
2018-09-28T10:17:57.655Z,78.24
2018-09-28T10:18:57.639Z,78.19
2018-09-28T10:19:57.598Z,77.19
2018-09-28T10:20:57.581Z,77.28
2018-09-28T10:21:57.550Z,77.00
2018-09-28T10:22:57.522Z,76.71
2018-09-28T10:23:57.502Z,75.66
2018-09-28T10:24:57.467Z,75.85
2018-09-28T10:25:57.450Z,74.13
2018-09-28T10:26:57.433Z,74.13
2018-09-28T10:27:57.424Z,73.55
2018-09-28T10:28:57.366Z,74.13
2018-09-28T10:29:57.341Z,73.27
2018-09-28T10:30:57.313Z,72.12
2018-09-28T10:31:57.293Z,71.93
2018-09-28T10:32:57.261Z,71.93
2018-09-28T10:33:57.239Z,71.55
2018-09-28T10:34:57.203Z,70.87
2018-09-28T10:35:57.189Z,71.16
2018-09-28T10:36:57.159Z,69.82
2018-09-28T10:37:57.134Z,69.92
2018-09-28T10:38:57.109Z,70.11
2018-09-28T10:39:57.076Z,68.96
2018-09-28T10:40:57.166Z,68.77
2018-09-28T10:41:57.026Z,67.14
2018-09-28T10:42:57.014Z,66.38
2018-09-28T10:43:56.987Z,66.76
2018-09-28T10:44:56.948Z,65.52
2018-09-28T10:45:56.941Z,66.47
2018-09-28T10:46:56.899Z,64.09
2018-09-28T10:47:56.865Z,62.37
2018-09-28T10:48:56.840Z,63.60
2018-09-28T10:49:56.826Z,61.22
2018-09-28T10:50:56.831Z,59.78
2018-09-28T10:51:56.882Z,58.63
2018-09-28T10:52:56.842Z,58.06
2018-09-28T10:53:56.711Z,58.34
2018-09-28T10:54:56.684Z,58.15
2018-09-28T10:55:56.667Z,58.25
2018-09-28T10:56:56.634Z,58.73
2018-09-28T10:57:56.613Z,61.51
2018-09-28T10:58:56.662Z,60.45
2018-09-28T10:59:56.558Z,59.97
2018-09-28T11:00:56.531Z,63.70
2018-09-28T11:01:56.506Z,62.55
2018-09-28T11:02:56.475Z,63.10
2018-09-28T11:03:56.452Z,64.37
2018-09-28T11:04:56.428Z,64.05
2018-09-28T11:05:56.401Z,64.95
2018-09-28T11:06:56.374Z,63.39
2018-09-28T11:07:56.344Z,64.15
2018-09-28T11:08:56.390Z,62.37
2018-09-28T11:09:56.290Z,61.38
2018-09-28T11:10:56.265Z,62.52
2018-09-28T11:11:56.240Z,62.71
2018-09-28T11:12:56.219Z,62.14
2018-09-28T11:13:56.188Z,64.72
2018-09-28T11:14:56.160Z,67.11
2018-09-28T11:15:56.131Z,66.73
2018-09-28T11:16:56.113Z,66.67
2018-09-28T11:17:56.089Z,66.63
2018-09-28T11:18:56.091Z,65.58
2018-09-28T11:19:56.035Z,66.73
2018-09-28T11:20:56.009Z,63.10
2018-09-28T11:21:55.977Z,60.83
2018-09-28T11:22:56.019Z,61.95
2018-09-28T11:23:55.953Z,62.62
2018-09-28T11:24:55.899Z,65.77
2018-09-28T11:25:55.882Z,64.82
2018-09-28T11:26:55.852Z,64.09
2018-09-28T11:27:55.821Z,65.42
2018-09-28T11:28:55.796Z,67.14
2018-09-28T11:29:55.777Z,69.73
2018-09-28T11:30:55.742Z,70.87
2018-09-28T11:31:55.714Z,69.73
2018-09-28T11:32:55.708Z,72.12
2018-09-28T11:33:55.664Z,72.02
2018-09-28T11:34:55.637Z,75.56
2018-09-28T11:35:56.097Z,73.84
2018-09-28T11:36:55.588Z,73.65
2018-09-28T11:37:55.559Z,72.31
2018-09-28T11:38:55.536Z,72.98
2018-09-28T11:39:55.516Z,73.36
2018-09-28T11:40:55.481Z,72.31
2018-09-28T11:41:55.458Z,73.50
2018-09-28T11:42:55.431Z,73.50
2018-09-28T11:43:55.411Z,73.30
2018-09-28T11:44:55.379Z,75.22
2018-09-28T11:45:55.346Z,75.51
2018-09-28T11:46:55.330Z,76.37
2018-09-28T11:47:55.301Z,76.75
2018-09-28T11:48:55.282Z,76.69
2018-09-28T11:49:55.247Z,76.60
2018-09-28T11:50:55.224Z,78.03
2018-09-28T11:51:55.197Z,79.85
2018-09-28T11:52:55.173Z,79.95
2018-09-28T11:53:55.139Z,80.33
2018-09-28T11:54:55.116Z,82.38
2018-09-28T11:55:55.129Z,82.19
2018-09-28T11:56:55.060Z,82.38
2018-09-28T11:57:55.044Z,83.44
2018-09-28T11:58:55.020Z,83.25
2018-09-28T11:59:54.999Z,84.49
2018-09-28T12:00:54.962Z,85.74
2018-09-28T12:01:54.940Z,85.64
2018-09-28T12:02:54.907Z,87.65
2018-09-28T12:03:54.889Z,86.35
2018-09-28T12:04:54.908Z,88.03
2018-09-28T12:05:54.843Z,88.37
2018-09-28T12:06:54.893Z,88.17
2018-09-28T12:07:54.787Z,88.08
2018-09-28T12:08:54.758Z,89.61
2018-09-28T12:09:54.732Z,90.19
2018-09-28T12:10:54.713Z,89.71
2018-09-28T12:11:54.680Z,91.05
2018-09-28T12:12:54.661Z,92.58
2018-09-28T12:13:54.626Z,92.10
2018-09-28T12:14:54.605Z,92.97
2018-09-28T12:15:54.575Z,93.06
2018-09-28T12:16:54.551Z,93.16
2018-09-28T12:17:54.525Z,94.02
2018-09-28T12:18:54.498Z,94.21
2018-09-28T12:19:54.478Z,93.30
2018-09-28T12:20:54.449Z,92.44
2018-09-28T12:21:54.427Z,92.91
2018-09-28T12:22:54.404Z,93.49
2018-09-28T12:23:54.369Z,93.11
2018-09-28T12:24:54.347Z,94.84
2018-09-28T12:25:54.321Z,94.45
2018-09-28T12:26:54.291Z,94.17
2018-09-28T12:27:54.279Z,95.41
2018-09-28T12:28:54.243Z,95.51
2018-09-28T12:29:54.229Z,95.41
2018-09-28T12:30:54.226Z,97.04
2018-09-28T12:31:54.215Z,97.47
2018-09-28T12:32:54.149Z,96.89
2018-09-28T12:33:54.131Z,96.80
2018-09-28T12:34:54.126Z,96.61
2018-09-28T12:35:54.079Z,97.09
2018-09-28T12:36:54.057Z,97.76
2018-09-28T12:37:54.034Z,97.76
2018-09-28T12:38:54.055Z,97.19
2018-09-28T12:39:54.003Z,97.38
2018-09-28T12:40:53.971Z,97.66
2018-09-28T12:41:53.925Z,96.61
2018-09-28T12:42:53.917Z,97.28
2018-09-28T12:43:53.898Z,97.52
2018-09-28T12:44:53.895Z,97.56
2018-09-28T12:45:53.873Z,97.28
2018-09-28T12:46:53.785Z,96.61
2018-09-28T12:47:53.759Z,96.61
2018-09-28T12:48:53.729Z,96.61
2018-09-28T12:49:53.708Z,96.61
2018-09-28T12:50:53.677Z,96.61
2018-09-28T12:51:53.685Z,97.09